< < Back
Terminal Aerodrome Forecast


Current Version              Previous Versions:   1  2  3  4  5  6  7  8  9  

Terminal Aerodrome Forecast

563
FTUS44 KHUN 191720
TAFHSV
TAF
KHSV 191720Z 1918/2018 02006KT P6SM OVC040
     FM200200 01004KT 5SM -RA BR OVC025
     FM200900 02003KT 4SM -RA BR SCT009 OVC015
     FM201500 05006KT P6SM FEW020 OVC100=

Latest METAR

500
SAUS80 KWBC 201700 RRA
MTRHSV
METAR KHSV 201653Z 35005KT 10SM CLR 09/M01 A3024 RMK AO2 SLP241
T00941011


USA.gov is the U.S. government's official web portal to all federal, state and local government web resources and services.